sensor_id;sensor_type;location;lat;lon;timestamp;pressure;altitude;pressure_sealevel;temperature;humidity
35023;BME280;21214;44.912;8.204;2023-06-26T00:02:12;99615.69;;;22.80;100.00
35023;BME280;21214;44.912;8.204;2023-06-26T00:04:38;99621.13;;;22.98;100.00
35023;BME280;21214;44.912;8.204;2023-06-26T00:07:04;99620.56;;;23.14;100.00
35023;BME280;21214;44.912;8.204;2023-06-26T00:09:29;99625.50;;;23.17;100.00
35023;BME280;21214;44.912;8.204;2023-06-26T00:11:54;99625.19;;;23.07;100.00
35023;BME280;21214;44.912;8.204;2023-06-26T00:14:20;99619.34;;;23.10;100.00
35023;BME280;21214;44.912;8.204;2023-06-26T00:16:46;99619.50;;;23.15;100.00
35023;BME280;21214;44.912;8.204;2023-06-26T00:19:11;99629.16;;;23.23;100.00
35023;BME280;21214;44.912;8.204;2023-06-26T00:21:36;99619.22;;;23.23;100.00
35023;BME280;21214;44.912;8.204;2023-06-26T00:24:02;99622.06;;;23.28;100.00
35023;BME280;21214;44.912;8.204;2023-06-26T00:26:27;99624.31;;;23.32;100.00
35023;BME280;21214;44.912;8.204;2023-06-26T00:28:53;99625.28;;;23.37;100.00
35023;BME280;21214;44.912;8.204;2023-06-26T00:31:19;99623.56;;;23.24;100.00
35023;BME280;21214;44.912;8.204;2023-06-26T00:33:44;99623.00;;;23.16;100.00
35023;BME280;21214;44.912;8.204;2023-06-26T00:36:10;99635.66;;;23.15;100.00
35023;BME280;21214;44.912;8.204;2023-06-26T00:38:36;99631.91;;;23.16;100.00
35023;BME280;21214;44.912;8.204;2023-06-26T00:41:01;99636.25;;;23.17;100.00
35023;BME280;21214;44.912;8.204;2023-06-26T00:43:27;99628.66;;;23.14;100.00
35023;BME280;21214;44.912;8.204;2023-06-26T00:45:53;99638.44;;;23.09;100.00
35023;BME280;21214;44.912;8.204;2023-06-26T00:48:18;99638.91;;;22.99;100.00
35023;BME280;21214;44.912;8.204;2023-06-26T00:50:44;99632.03;;;22.85;100.00
35023;BME280;21214;44.912;8.204;2023-06-26T00:53:10;99635.03;;;22.64;100.00
35023;BME280;21214;44.912;8.204;2023-06-26T00:55:36;99633.69;;;22.55;100.00
35023;BME280;21214;44.912;8.204;2023-06-26T00:58:01;99636.38;;;22.55;100.00
35023;BME280;21214;44.912;8.204;2023-06-26T01:00:27;99638.22;;;22.54;100.00
35023;BME280;21214;44.912;8.204;2023-06-26T01:02:53;99640.44;;;22.64;100.00
35023;BME280;21214;44.912;8.204;2023-06-26T01:05:19;99640.78;;;22.74;100.00
35023;BME280;21214;44.912;8.204;2023-06-26T01:07:48;99631.25;;;22.78;100.00
35023;BME280;21214;44.912;8.204;2023-06-26T01:10:13;99637.81;;;22.82;100.00
35023;BME280;21214;44.912;8.204;2023-06-26T01:12:39;99643.38;;;22.87;100.00
35023;BME280;21214;44.912;8.204;2023-06-26T01:15:05;99643.22;;;22.82;100.00
35023;BME280;21214;44.912;8.204;2023-06-26T01:17:31;99637.06;;;22.75;100.00
35023;BME280;21214;44.912;8.204;2023-06-26T01:19:58;99632.28;;;22.77;100.00
35023;BME280;21214;44.912;8.204;2023-06-26T01:27:36;99634.16;;;22.70;100.00
35023;BME280;21214;44.912;8.204;2023-06-26T01:30:02;99620.56;;;22.65;100.00
35023;BME280;21214;44.912;8.204;2023-06-26T01:32:29;99624.75;;;22.61;100.00
35023;BME280;21214;44.912;8.204;2023-06-26T01:34:54;99629.66;;;22.64;100.00
35023;BME280;21214;44.912;8.204;2023-06-26T01:37:19;99626.81;;;22.59;100.00
35023;BME280;21214;44.912;8.204;2023-06-26T01:39:45;99625.22;;;22.51;100.00
35023;BME280;21214;44.912;8.204;2023-06-26T01:42:10;99631.56;;;22.32;100.00
35023;BME280;21214;44.912;8.204;2023-06-26T01:44:37;99627.09;;;22.19;100.00
35023;BME280;21214;44.912;8.204;2023-06-26T01:47:07;99625.00;;;22.21;100.00
35023;BME280;21214;44.912;8.204;2023-06-26T01:54:44;99622.66;;;22.31;100.00
35023;BME280;21214;44.912;8.204;2023-06-26T01:57:12;99627.94;;;22.13;100.00
35023;BME280;21214;44.912;8.204;2023-06-26T01:59:38;99626.38;;;21.86;100.00
35023;BME280;21214;44.912;8.204;2023-06-26T02:02:06;99627.00;;;21.88;100.00
35023;BME280;21214;44.912;8.204;2023-06-26T02:04:31;99629.22;;;22.04;100.00
35023;BME280;21214;44.912;8.204;2023-06-26T02:06:57;99620.94;;;22.12;100.00
35023;BME280;21214;44.912;8.204;2023-06-26T02:09:22;99629.94;;;22.24;100.00
35023;BME280;21214;44.912;8.204;2023-06-26T02:11:47;99639.84;;;22.30;100.00
35023;BME280;21214;44.912;8.204;2023-06-26T02:14:13;99636.13;;;22.31;100.00
35023;BME280;21214;44.912;8.204;2023-06-26T02:16:38;99628.22;;;22.36;100.00
35023;BME280;21214;44.912;8.204;2023-06-26T02:19:05;99631.50;;;22.38;100.00
35023;BME280;21214;44.912;8.204;2023-06-26T02:21:30;99642.25;;;22.38;100.00
35023;BME280;21214;44.912;8.204;2023-06-26T02:23:56;99637.78;;;22.32;100.00
35023;BME280;21214;44.912;8.204;2023-06-26T02:26:21;99643.38;;;22.24;100.00
35023;BME280;21214;44.912;8.204;2023-06-26T02:28:47;99644.03;;;22.20;100.00
35023;BME280;21214;44.912;8.204;2023-06-26T02:31:14;99646.16;;;22.11;100.00
35023;BME280;21214;44.912;8.204;2023-06-26T02:33:39;99643.56;;;21.85;100.00
35023;BME280;21214;44.912;8.204;2023-06-26T02:36:06;99643.84;;;21.57;100.00
35023;BME280;21214;44.912;8.204;2023-06-26T02:38:31;99650.91;;;21.51;100.00
35023;BME280;21214;44.912;8.204;2023-06-26T02:40:58;99647.16;;;21.59;100.00
35023;BME280;21214;44.912;8.204;2023-06-26T02:43:23;99650.50;;;21.54;100.00
35023;BME280;21214;44.912;8.204;2023-06-26T02:45:49;99655.03;;;21.60;100.00
35023;BME280;21214;44.912;8.204;2023-06-26T02:48:14;99652.34;;;21.60;100.00
35023;BME280;21214;44.912;8.204;2023-06-26T02:50:41;99650.03;;;21.64;100.00
35023;BME280;21214;44.912;8.204;2023-06-26T02:53:11;99652.09;;;21.69;100.00
35023;BME280;21214;44.912;8.204;2023-06-26T02:55:39;99653.75;;;21.70;100.00
35023;BME280;21214;44.912;8.204;2023-06-26T02:58:05;99650.47;;;21.68;100.00
35023;BME280;21214;44.912;8.204;2023-06-26T03:00:32;99650.84;;;21.71;100.00
35023;BME280;21214;44.912;8.204;2023-06-26T03:03:00;99654.94;;;21.74;100.00
35023;BME280;21214;44.912;8.204;2023-06-26T03:05:26;99647.16;;;21.65;100.00
35023;BME280;21214;44.912;8.204;2023-06-26T03:07:51;99653.47;;;21.20;100.00
35023;BME280;21214;44.912;8.204;2023-06-26T03:10:17;99650.34;;;21.03;100.00
35023;BME280;21214;44.912;8.204;2023-06-26T03:12:43;99652.22;;;20.90;100.00
35023;BME280;21214;44.912;8.204;2023-06-26T03:15:09;99655.91;;;20.69;100.00
35023;BME280;21214;44.912;8.204;2023-06-26T03:17:37;99656.94;;;20.74;100.00
35023;BME280;21214;44.912;8.204;2023-06-26T03:20:06;99659.22;;;20.84;100.00
35023;BME280;21214;44.912;8.204;2023-06-26T03:22:46;99663.34;;;21.00;100.00
35023;BME280;21214;44.912;8.204;2023-06-26T03:25:13;99663.34;;;21.06;100.00
35023;BME280;21214;44.912;8.204;2023-06-26T03:27:38;99661.69;;;21.12;100.00
35023;BME280;21214;44.912;8.204;2023-06-26T03:30:04;99656.75;;;21.15;100.00
35023;BME280;21214;44.912;8.204;2023-06-26T03:32:30;99663.56;;;21.18;100.00
35023;BME280;21214;44.912;8.204;2023-06-26T03:34:55;99668.09;;;21.24;100.00
35023;BME280;21214;44.912;8.204;2023-06-26T03:37:21;99656.75;;;21.29;100.00
35023;BME280;21214;44.912;8.204;2023-06-26T03:39:48;99660.44;;;21.34;100.00
35023;BME280;21214;44.912;8.204;2023-06-26T03:42:14;99667.06;;;21.38;100.00
35023;BME280;21214;44.912;8.204;2023-06-26T03:44:39;99666.63;;;21.41;100.00
35023;BME280;21214;44.912;8.204;2023-06-26T03:47:04;99664.56;;;21.43;100.00
35023;BME280;21214;44.912;8.204;2023-06-26T03:49:30;99669.31;;;21.48;100.00
35023;BME280;21214;44.912;8.204;2023-06-26T03:51:55;99668.88;;;21.44;100.00
35023;BME280;21214;44.912;8.204;2023-06-26T03:54:21;99674.25;;;21.44;100.00
35023;BME280;21214;44.912;8.204;2023-06-26T03:56:47;99681.91;;;21.41;100.00
35023;BME280;21214;44.912;8.204;2023-06-26T03:59:12;99683.56;;;21.42;100.00
35023;BME280;21214;44.912;8.204;2023-06-26T04:01:38;99684.41;;;21.42;100.00
35023;BME280;21214;44.912;8.204;2023-06-26T04:04:04;99686.47;;;21.14;100.00
35023;BME280;21214;44.912;8.204;2023-06-26T04:06:31;99682.31;;;20.59;100.00
35023;BME280;21214;44.912;8.204;2023-06-26T04:08:56;99681.50;;;20.71;100.00
35023;BME280;21214;44.912;8.204;2023-06-26T04:11:22;99683.97;;;20.79;100.00
35023;BME280;21214;44.912;8.204;2023-06-26T04:13:47;99691.81;;;20.88;100.00
35023;BME280;21214;44.912;8.204;2023-06-26T04:16:12;99693.28;;;20.97;100.00
35023;BME280;21214;44.912;8.204;2023-06-26T04:18:38;99699.44;;;21.04;100.00
35023;BME280;21214;44.912;8.204;2023-06-26T04:21:10;99693.06;;;20.98;100.00
35023;BME280;21214;44.912;8.204;2023-06-26T04:23:36;99686.28;;;20.96;100.00
35023;BME280;21214;44.912;8.204;2023-06-26T04:26:02;99697.81;;;21.03;100.00
35023;BME280;21214;44.912;8.204;2023-06-26T04:28:30;99690.81;;;21.02;100.00
35023;BME280;21214;44.912;8.204;2023-06-26T04:30:55;99699.44;;;21.04;100.00
35023;BME280;21214;44.912;8.204;2023-06-26T04:33:20;99713.69;;;21.11;100.00
35023;BME280;21214;44.912;8.204;2023-06-26T04:35:46;99706.28;;;21.13;100.00
35023;BME280;21214;44.912;8.204;2023-06-26T04:38:14;99713.53;;;21.19;100.00
35023;BME280;21214;44.912;8.204;2023-06-26T04:40:39;99702.97;;;21.11;100.00
35023;BME280;21214;44.912;8.204;2023-06-26T04:43:04;99707.31;;;21.12;100.00
35023;BME280;21214;44.912;8.204;2023-06-26T04:45:30;99700.09;;;21.12;100.00
35023;BME280;21214;44.912;8.204;2023-06-26T04:47:56;99706.28;;;21.13;100.00
35023;BME280;21214;44.912;8.204;2023-06-26T04:50:22;99704.84;;;21.17;100.00
35023;BME280;21214;44.912;8.204;2023-06-26T04:52:48;99706.72;;;21.16;100.00
35023;BME280;21214;44.912;8.204;2023-06-26T04:55:13;99709.19;;;21.18;100.00
35023;BME280;21214;44.912;8.204;2023-06-26T04:57:38;99705.88;;;21.16;100.00
35023;BME280;21214;44.912;8.204;2023-06-26T05:00:04;99703.81;;;21.18;100.00
35023;BME280;21214;44.912;8.204;2023-06-26T05:02:35;99703.00;;;21.24;100.00
35023;BME280;21214;44.912;8.204;2023-06-26T05:05:00;99710.03;;;21.32;100.00
35023;BME280;21214;44.912;8.204;2023-06-26T05:07:25;99708.34;;;21.37;100.00
35023;BME280;21214;44.912;8.204;2023-06-26T05:09:51;99710.03;;;21.32;100.00
35023;BME280;21214;44.912;8.204;2023-06-26T05:12:16;99717.44;;;21.36;100.00
35023;BME280;21214;44.912;8.204;2023-06-26T05:14:41;99710.03;;;21.32;100.00
35023;BME280;21214;44.912;8.204;2023-06-26T05:17:06;99711.63;;;21.39;100.00
35023;BME280;21214;44.912;8.204;2023-06-26T05:19:32;99714.94;;;21.41;100.00
35023;BME280;21214;44.912;8.204;2023-06-26T05:21:57;99716.59;;;21.42;100.00
35023;BME280;21214;44.912;8.204;2023-06-26T05:24:24;99719.88;;;21.44;100.00
35023;BME280;21214;44.912;8.204;2023-06-26T05:26:50;99713.69;;;21.50;100.00
35023;BME280;21214;44.912;8.204;2023-06-26T05:29:15;99712.25;;;21.54;100.00
35023;BME280;21214;44.912;8.204;2023-06-26T05:31:41;99717.00;;;21.52;100.00
35023;BME280;21214;44.912;8.204;2023-06-26T05:34:07;99719.66;;;21.59;100.00
35023;BME280;21214;44.912;8.204;2023-06-26T05:36:33;99717.81;;;21.59;100.00
35023;BME280;21214;44.912;8.204;2023-06-26T05:38:59;99724.00;;;21.67;100.00
35023;BME280;21214;44.912;8.204;2023-06-26T05:41:25;99720.84;;;21.83;100.00
35023;BME280;21214;44.912;8.204;2023-06-26T05:43:50;99724.75;;;21.87;100.00
35023;BME280;21214;44.912;8.204;2023-06-26T05:46:16;99726.41;;;21.88;100.00
35023;BME280;21214;44.912;8.204;2023-06-26T05:48:41;99728.47;;;21.99;100.00
35023;BME280;21214;44.912;8.204;2023-06-26T05:51:07;99738.38;;;22.05;100.00
35023;BME280;21214;44.912;8.204;2023-06-26T05:53:32;99735.44;;;22.13;100.00
35023;BME280;21214;44.912;8.204;2023-06-26T05:55:58;99732.94;;;22.18;100.00
35023;BME280;21214;44.912;8.204;2023-06-26T05:58:26;99729.00;;;22.21;100.00
35023;BME280;21214;44.912;8.204;2023-06-26T06:00:52;99729.59;;;22.29;100.00
35023;BME280;21214;44.912;8.204;2023-06-26T06:03:18;99731.84;;;22.32;100.00
35023;BME280;21214;44.912;8.204;2023-06-26T06:05:43;99733.66;;;22.38;100.00
35023;BME280;21214;44.912;8.204;2023-06-26T06:08:09;99732.38;;;22.48;100.00
35023;BME280;21214;44.912;8.204;2023-06-26T06:10:34;99734.44;;;22.52;100.00
35023;BME280;21214;44.912;8.204;2023-06-26T06:13:00;99733.16;;;22.61;100.00
35023;BME280;21214;44.912;8.204;2023-06-26T06:15:25;99740.56;;;22.66;100.00
35023;BME280;21214;44.912;8.204;2023-06-26T06:17:50;99738.50;;;22.68;100.00
35023;BME280;21214;44.912;8.204;2023-06-26T06:20:16;99736.19;;;22.71;100.00
35023;BME280;21214;44.912;8.204;2023-06-26T06:22:42;99749.22;;;22.74;100.00
35023;BME280;21214;44.912;8.204;2023-06-26T06:25:07;99738.25;;;22.76;100.00
35023;BME280;21214;44.912;8.204;2023-06-26T06:27:33;99735.72;;;22.81;100.00
35023;BME280;21214;44.912;8.204;2023-06-26T06:29:58;99731.75;;;22.90;100.00
35023;BME280;21214;44.912;8.204;2023-06-26T06:32:24;99739.97;;;22.95;100.00
35023;BME280;21214;44.912;8.204;2023-06-26T06:34:49;99737.47;;;23.00;100.00
35023;BME280;21214;44.912;8.204;2023-06-26T06:37:14;99728.72;;;23.05;100.00
35023;BME280;21214;44.912;8.204;2023-06-26T06:39:39;99723.28;;;23.11;100.00
35023;BME280;21214;44.912;8.204;2023-06-26T06:42:05;99728.41;;;23.19;100.00
35023;BME280;21214;44.912;8.204;2023-06-26T06:44:30;99722.72;;;23.27;100.00
35023;BME280;21214;44.912;8.204;2023-06-26T06:46:56;99732.19;;;23.37;100.00
35023;BME280;21214;44.912;8.204;2023-06-26T06:49:21;99717.38;;;23.46;100.00
35023;BME280;21214;44.912;8.204;2023-06-26T06:51:46;99727.91;;;23.54;100.00
35023;BME280;21214;44.912;8.204;2023-06-26T06:54:12;99730.75;;;23.59;100.00
35023;BME280;21214;44.912;8.204;2023-06-26T06:56:37;99736.44;;;23.69;100.00
35023;BME280;21214;44.912;8.204;2023-06-26T06:59:02;99731.81;;;23.76;100.00
35023;BME280;21214;44.912;8.204;2023-06-26T07:01:28;99728.22;;;23.82;100.00
35023;BME280;21214;44.912;8.204;2023-06-26T07:03:53;99720.44;;;23.92;100.00
35023;BME280;21214;44.912;8.204;2023-06-26T07:06:18;99725.75;;;23.99;100.00
35023;BME280;21214;44.912;8.204;2023-06-26T07:08:44;99728.22;;;24.00;100.00
35023;BME280;21214;44.912;8.204;2023-06-26T07:11:09;99728.16;;;24.07;100.00
35023;BME280;21214;44.912;8.204;2023-06-26T07:13:34;99728.44;;;24.17;100.00
35023;BME280;21214;44.912;8.204;2023-06-26T07:16:00;99726.28;;;24.26;100.00
35023;BME280;21214;44.912;8.204;2023-06-26T07:18:25;99731.59;;;24.32;100.00
35023;BME280;21214;44.912;8.204;2023-06-26T07:20:50;99729.56;;;24.28;100.00
35023;BME280;21214;44.912;8.204;2023-06-26T07:23:16;99730.38;;;24.28;100.00
35023;BME280;21214;44.912;8.204;2023-06-26T07:25:41;99722.00;;;24.36;100.00
35023;BME280;21214;44.912;8.204;2023-06-26T07:28:10;99733.06;;;24.46;100.00
35023;BME280;21214;44.912;8.204;2023-06-26T07:30:36;99722.66;;;24.50;100.00
35023;BME280;21214;44.912;8.204;2023-06-26T07:33:02;99729.34;;;24.59;100.00
35023;BME280;21214;44.912;8.204;2023-06-26T07:35:27;99730.09;;;24.66;100.00
35023;BME280;21214;44.912;8.204;2023-06-26T07:37:52;99723.16;;;24.70;100.00
35023;BME280;21214;44.912;8.204;2023-06-26T07:40:18;99726.47;;;24.72;100.00
35023;BME280;21214;44.912;8.204;2023-06-26T07:42:43;99727.78;;;24.81;100.00
35023;BME280;21214;44.912;8.204;2023-06-26T07:45:09;99726.66;;;24.89;100.00
35023;BME280;21214;44.912;8.204;2023-06-26T07:47:38;99725.59;;;24.90;100.00
35023;BME280;21214;44.912;8.204;2023-06-26T07:50:03;99723.38;;;24.99;100.00
35023;BME280;21214;44.912;8.204;2023-06-26T07:52:29;99718.25;;;25.09;100.00
35023;BME280;21214;44.912;8.204;2023-06-26T07:54:55;99720.38;;;25.18;100.00
35023;BME280;21214;44.912;8.204;2023-06-26T07:57:21;99720.72;;;25.22;100.00
35023;BME280;21214;44.912;8.204;2023-06-26T07:59:46;99723.28;;;25.28;100.00
35023;BME280;21214;44.912;8.204;2023-06-26T08:02:11;99716.72;;;25.36;100.00
35023;BME280;21214;44.912;8.204;2023-06-26T08:04:37;99712.88;;;25.44;100.00
35023;BME280;21214;44.912;8.204;2023-06-26T08:07:02;99720.03;;;25.50;100.00
35023;BME280;21214;44.912;8.204;2023-06-26T08:09:29;99714.53;;;25.56;100.00
35023;BME280;21214;44.912;8.204;2023-06-26T08:11:55;99713.47;;;25.57;100.00
35023;BME280;21214;44.912;8.204;2023-06-26T08:14:20;99716.63;;;25.66;100.00
35023;BME280;21214;44.912;8.204;2023-06-26T08:16:46;99707.22;;;25.68;100.00
35023;BME280;21214;44.912;8.204;2023-06-26T08:19:14;99705.09;;;25.71;100.00
35023;BME280;21214;44.912;8.204;2023-06-26T08:21:40;99703.56;;;25.75;100.00
35023;BME280;21214;44.912;8.204;2023-06-26T08:24:06;99702.63;;;25.81;100.00
35023;BME280;21214;44.912;8.204;2023-06-26T08:26:31;99704.97;;;25.89;100.00
35023;BME280;21214;44.912;8.204;2023-06-26T08:28:57;99710.22;;;25.95;100.00
35023;BME280;21214;44.912;8.204;2023-06-26T08:31:22;99707.97;;;26.04;100.00
35023;BME280;21214;44.912;8.204;2023-06-26T08:33:48;99702.41;;;26.10;100.00
35023;BME280;21214;44.912;8.204;2023-06-26T08:36:13;99706.03;;;26.16;100.00
35023;BME280;21214;44.912;8.204;2023-06-26T08:38:39;99692.66;;;26.21;100.00
35023;BME280;21214;44.912;8.204;2023-06-26T08:41:09;99704.66;;;26.25;100.00
35023;BME280;21214;44.912;8.204;2023-06-26T08:43:35;99689.56;;;26.29;100.00
35023;BME280;21214;44.912;8.204;2023-06-26T08:46:01;99686.13;;;26.34;100.00
35023;BME280;21214;44.912;8.204;2023-06-26T08:48:26;99684.94;;;26.41;100.00
35023;BME280;21214;44.912;8.204;2023-06-26T08:50:55;99686.66;;;26.47;100.00
35023;BME280;21214;44.912;8.204;2023-06-26T08:53:27;99685.69;;;26.54;100.00
35023;BME280;21214;44.912;8.204;2023-06-26T08:55:54;99680.13;;;26.60;100.00
35023;BME280;21214;44.912;8.204;2023-06-26T08:58:22;99685.41;;;26.67;100.00
35023;BME280;21214;44.912;8.204;2023-06-26T09:00:48;99686.06;;;26.74;100.00
35023;BME280;21214;44.912;8.204;2023-06-26T09:03:15;99688.84;;;26.79;100.00
35023;BME280;21214;44.912;8.204;2023-06-26T09:05:40;99687.28;;;26.83;100.00
35023;BME280;21214;44.912;8.204;2023-06-26T09:08:06;99679.50;;;26.86;100.00
35023;BME280;21214;44.912;8.204;2023-06-26T09:10:32;99686.41;;;26.94;100.00
35023;BME280;21214;44.912;8.204;2023-06-26T09:12:57;99684.13;;;27.03;100.00
35023;BME280;21214;44.912;8.204;2023-06-26T09:15:23;99677.97;;;27.07;100.00
35023;BME280;21214;44.912;8.204;2023-06-26T09:17:48;99675.94;;;27.14;100.00
35023;BME280;21214;44.912;8.204;2023-06-26T09:20:14;99673.28;;;27.19;100.00
35023;BME280;21214;44.912;8.204;2023-06-26T09:22:40;99672.28;;;27.25;100.00
35023;BME280;21214;44.912;8.204;2023-06-26T09:25:06;99674.25;;;27.30;100.00
35023;BME280;21214;44.912;8.204;2023-06-26T09:27:32;99674.56;;;27.34;100.00
35023;BME280;21214;44.912;8.204;2023-06-26T09:29:58;99670.31;;;27.38;99.79
35023;BME280;21214;44.912;8.204;2023-06-26T09:32:26;99668.50;;;27.43;98.56
35023;BME280;21214;44.912;8.204;2023-06-26T09:34:53;99673.72;;;27.50;97.60
35023;BME280;21214;44.912;8.204;2023-06-26T09:37:21;99671.13;;;27.55;94.03
35023;BME280;21214;44.912;8.204;2023-06-26T09:39:48;99663.53;;;27.57;93.42
35023;BME280;21214;44.912;8.204;2023-06-26T09:42:13;99670.94;;;27.61;92.98
35023;BME280;21214;44.912;8.204;2023-06-26T09:44:43;99662.63;;;27.68;91.88
35023;BME280;21214;44.912;8.204;2023-06-26T09:47:08;99661.88;;;27.73;91.91
35023;BME280;21214;44.912;8.204;2023-06-26T09:49:34;99663.81;;;27.77;92.03
35023;BME280;21214;44.912;8.204;2023-06-26T09:52:00;99656.31;;;27.84;90.97
35023;BME280;21214;44.912;8.204;2023-06-26T09:54:25;99654.72;;;27.88;91.56
35023;BME280;21214;44.912;8.204;2023-06-26T09:56:55;99653.00;;;28.04;90.12
35023;BME280;21214;44.912;8.204;2023-06-26T09:59:20;99648.47;;;28.09;87.49
35023;BME280;21214;44.912;8.204;2023-06-26T10:01:46;99659.06;;;28.11;84.27
35023;BME280;21214;44.912;8.204;2023-06-26T10:04:11;99647.50;;;28.16;83.07
35023;BME280;21214;44.912;8.204;2023-06-26T10:06:38;99642.63;;;28.18;83.14
35023;BME280;21214;44.912;8.204;2023-06-26T10:09:06;99643.28;;;28.30;83.09
35023;BME280;21214;44.912;8.204;2023-06-26T10:11:36;99640.91;;;28.33;84.52
35023;BME280;21214;44.912;8.204;2023-06-26T10:14:03;99641.69;;;28.34;85.38
35023;BME280;21214;44.912;8.204;2023-06-26T10:16:29;99634.94;;;28.36;85.34
35023;BME280;21214;44.912;8.204;2023-06-26T10:18:58;99635.75;;;28.37;85.19
35023;BME280;21214;44.912;8.204;2023-06-26T10:21:26;99635.81;;;28.42;86.16
35023;BME280;21214;44.912;8.204;2023-06-26T10:23:52;99639.09;;;28.44;86.70
35023;BME280;21214;44.912;8.204;2023-06-26T10:26:19;99638.03;;;28.45;86.58
35023;BME280;21214;44.912;8.204;2023-06-26T10:28:46;99634.22;;;28.46;86.87
35023;BME280;21214;44.912;8.204;2023-06-26T10:31:21;99638.59;;;28.52;86.00
35023;BME280;21214;44.912;8.204;2023-06-26T10:33:48;99633.78;;;28.59;86.21
35023;BME280;21214;44.912;8.204;2023-06-26T10:36:17;99625.41;;;28.61;86.68
35023;BME280;21214;44.912;8.204;2023-06-26T10:38:53;99623.53;;;28.66;85.84
35023;BME280;21214;44.912;8.204;2023-06-26T10:41:20;99623.00;;;28.69;85.98
35023;BME280;21214;44.912;8.204;2023-06-26T10:43:48;99623.09;;;28.74;86.00
35023;BME280;21214;44.912;8.204;2023-06-26T10:46:14;99616.06;;;28.78;85.30
35023;BME280;21214;44.912;8.204;2023-06-26T10:48:55;99617.19;;;28.82;85.87
35023;BME280;21214;44.912;8.204;2023-06-26T10:51:21;99612.84;;;28.86;84.72
35023;BME280;21214;44.912;8.204;2023-06-26T10:53:49;99619.41;;;28.90;84.78
35023;BME280;21214;44.912;8.204;2023-06-26T10:56:15;99614.59;;;28.98;83.69
35023;BME280;21214;44.912;8.204;2023-06-26T10:58:41;99609.44;;;29.01;82.95
35023;BME280;21214;44.912;8.204;2023-06-26T11:01:23;99614.66;;;29.08;83.12
35023;BME280;21214;44.912;8.204;2023-06-26T11:03:49;99606.53;;;29.13;83.22
35023;BME280;21214;44.912;8.204;2023-06-26T11:06:26;99608.16;;;29.14;82.79
35023;BME280;21214;44.912;8.204;2023-06-26T11:14:13;99600.00;;;29.14;81.79
35023;BME280;21214;44.912;8.204;2023-06-26T11:16:41;99602.72;;;29.14;81.71
35023;BME280;21214;44.912;8.204;2023-06-26T11:19:07;99602.19;;;29.17;82.31
35023;BME280;21214;44.912;8.204;2023-06-26T11:21:33;99597.31;;;29.19;82.29
35023;BME280;21214;44.912;8.204;2023-06-26T11:23:58;99593.28;;;29.21;82.34
35023;BME280;21214;44.912;8.204;2023-06-26T11:26:27;99583.25;;;29.27;82.39
35023;BME280;21214;44.912;8.204;2023-06-26T11:28:55;99588.13;;;29.30;82.84
35023;BME280;21214;44.912;8.204;2023-06-26T11:31:27;99588.50;;;29.39;81.83
35023;BME280;21214;44.912;8.204;2023-06-26T11:33:55;99584.44;;;29.46;81.29
35023;BME280;21214;44.912;8.204;2023-06-26T11:36:24;99583.94;;;29.54;81.04
35023;BME280;21214;44.912;8.204;2023-06-26T11:38:54;99581.22;;;29.59;80.23
35023;BME280;21214;44.912;8.204;2023-06-26T11:41:20;99587.53;;;29.75;78.05
35023;BME280;21214;44.912;8.204;2023-06-26T11:43:45;99587.84;;;29.79;78.26
35023;BME280;21214;44.912;8.204;2023-06-26T11:46:10;99578.88;;;29.83;78.91
35023;BME280;21214;44.912;8.204;2023-06-26T11:48:36;99581.38;;;29.95;77.96
35023;BME280;21214;44.912;8.204;2023-06-26T11:51:05;99574.34;;;30.04;77.76
35023;BME280;21214;44.912;8.204;2023-06-26T11:53:31;99573.25;;;30.15;74.36
35023;BME280;21214;44.912;8.204;2023-06-26T11:55:56;99574.34;;;30.24;74.26
35023;BME280;21214;44.912;8.204;2023-06-26T11:58:22;99574.09;;;30.31;73.23
35023;BME280;21214;44.912;8.204;2023-06-26T12:00:48;99571.66;;;30.39;70.87
35023;BME280;21214;44.912;8.204;2023-06-26T12:03:13;99571.69;;;30.49;71.42
35023;BME280;21214;44.912;8.204;2023-06-26T12:05:39;99566.78;;;30.57;70.15
35023;BME280;21214;44.912;8.204;2023-06-26T12:08:04;99565.13;;;30.66;68.86
35023;BME280;21214;44.912;8.204;2023-06-26T12:10:32;99560.22;;;30.73;68.87
35023;BME280;21214;44.912;8.204;2023-06-26T12:12:58;99555.81;;;30.87;67.64
35023;BME280;21214;44.912;8.204;2023-06-26T12:15:25;99560.69;;;31.00;66.86
35023;BME280;21214;44.912;8.204;2023-06-26T12:17:51;99551.97;;;31.18;66.00
35023;BME280;21214;44.912;8.204;2023-06-26T12:20:25;99559.53;;;31.37;63.06
35023;BME280;21214;44.912;8.204;2023-06-26T12:22:52;99546.91;;;31.56;63.51
35023;BME280;21214;44.912;8.204;2023-06-26T12:25:23;99551.75;;;31.74;60.79
35023;BME280;21214;44.912;8.204;2023-06-26T12:27:48;99551.16;;;31.82;59.66
35023;BME280;21214;44.912;8.204;2023-06-26T12:30:15;99543.41;;;31.99;58.24
35023;BME280;21214;44.912;8.204;2023-06-26T12:32:40;99550.44;;;32.16;56.92
35023;BME280;21214;44.912;8.204;2023-06-26T12:35:09;99539.22;;;32.17;56.28
35023;BME280;21214;44.912;8.204;2023-06-26T12:37:37;99531.72;;;32.33;56.50
35023;BME280;21214;44.912;8.204;2023-06-26T12:40:15;99538.69;;;32.49;56.36
35023;BME280;21214;44.912;8.204;2023-06-26T12:42:42;99532.81;;;32.66;55.81
35023;BME280;21214;44.912;8.204;2023-06-26T12:45:11;99531.88;;;32.75;55.98
35023;BME280;21214;44.912;8.204;2023-06-26T12:47:37;99527.09;;;32.91;56.14
35023;BME280;21214;44.912;8.204;2023-06-26T12:50:06;99515.06;;;33.16;55.07
35023;BME280;21214;44.912;8.204;2023-06-26T12:52:32;99515.53;;;33.23;52.67
35023;BME280;21214;44.912;8.204;2023-06-26T12:54:57;99522.97;;;33.41;51.25
35023;BME280;21214;44.912;8.204;2023-06-26T12:57:23;99515.97;;;33.54;50.76
35023;BME280;21214;44.912;8.204;2023-06-26T12:59:48;99520.50;;;33.63;49.29
35023;BME280;21214;44.912;8.204;2023-06-26T13:02:14;99515.94;;;33.78;50.11
35023;BME280;21214;44.912;8.204;2023-06-26T13:04:40;99504.25;;;33.91;48.93